LPAZ/SMA METAR and TAF weather

Enter ICAO airport designator
Station Type Date Time Source
LPAZ METAR 2022/01/26 13:30 UTC NOAA

LPAZ 261330Z 03016KT 9999 FEW024 BKN030 16/10 Q1032


Station Type Date Time Source
LPAZ Decoded METAR 2022/01/26 13:30 UTC NOAA

Santa Maria Acores , Portugal (LPAZ) 36-58N 025-10W 100M
Jan 26, 2022 - 08:30 AM EST / 2022.01.26 1330 UTC
Wind: from the NNE (030 degrees) at 18 MPH (16 KT):0
Visibility: greater than 7 mile(s):0
Sky conditions: mostly cloudy
Temperature: 60 F (16 C)
Dew Point: 50 F (10 C)
Relative Humidity: 67%
Pressure (altimeter): 30.47 in. Hg (1032 hPa)
ob: LPAZ 261330Z 03016KT 9999 FEW024 BKN030 16/10 Q1032
cycle: 13

Station Type Date Time Source
LPAZ TAF 2022/01/26 12:19 UTC NOAA

TAF LPAZ 261100Z 2612/2718 03015KT 9999 SCT025 PROB40
TEMPO 2612/2718 03018G28KT

Example: see airport list